createdAt,value
2018-07-19T00:01:56.683Z,3.30
2018-07-19T00:04:23.702Z,3.33
2018-07-19T00:06:50.690Z,3.20
2018-07-19T00:09:17.678Z,2.70
2018-07-19T00:11:44.696Z,3.40
2018-07-19T00:14:11.705Z,3.47
2018-07-19T00:16:38.696Z,3.00
2018-07-19T00:19:05.732Z,3.23
2018-07-19T00:21:32.692Z,3.30
2018-07-19T00:24:00.051Z,3.50
2018-07-19T00:26:27.025Z,3.53
2018-07-19T00:28:54.045Z,3.40
2018-07-19T00:31:21.135Z,3.60
2018-07-19T00:33:48.175Z,3.33
2018-07-19T00:36:15.144Z,2.87
2018-07-19T00:38:42.158Z,3.17
2018-07-19T00:41:09.188Z,3.33
2018-07-19T00:43:36.356Z,3.47
2018-07-19T00:46:03.370Z,3.60
2018-07-19T00:48:30.324Z,3.27
2018-07-19T00:50:57.339Z,3.00
2018-07-19T00:53:24.356Z,3.10
2018-07-19T00:55:51.481Z,3.33
2018-07-19T00:58:18.476Z,3.87
2018-07-19T01:00:45.488Z,3.97
2018-07-19T01:03:12.604Z,3.50
2018-07-19T01:05:39.649Z,2.40
2018-07-19T01:08:06.665Z,3.57
2018-07-19T01:10:33.652Z,2.87
2018-07-19T01:13:00.645Z,2.80
2018-07-19T01:15:27.693Z,2.90
2018-07-19T01:17:54.667Z,2.93
2018-07-19T01:20:21.653Z,3.03
2018-07-19T01:22:48.940Z,3.33
2018-07-19T01:25:16.197Z,3.37
2018-07-19T01:27:43.233Z,2.83
2018-07-19T01:30:10.257Z,3.63
2018-07-19T01:32:37.318Z,3.43
2018-07-19T01:35:04.529Z,3.13
2018-07-19T01:37:31.549Z,3.20
2018-07-19T01:39:58.529Z,3.37
2018-07-19T01:42:32.173Z,3.15
2018-07-19T01:44:59.220Z,2.97
2018-07-19T01:47:26.252Z,4.60
2018-07-19T01:49:53.258Z,3.10
2018-07-19T01:52:20.236Z,3.62
2018-07-19T01:54:47.264Z,3.47
2018-07-19T01:57:15.476Z,3.22
2018-07-19T01:59:43.097Z,3.60
2018-07-19T02:02:10.320Z,3.93
2018-07-19T02:04:37.309Z,4.20
2018-07-19T02:07:04.901Z,3.23
2018-07-19T02:09:31.949Z,3.83
2018-07-19T02:11:59.263Z,3.67
2018-07-19T02:14:26.264Z,4.08
2018-07-19T02:16:53.529Z,3.40
2018-07-19T02:19:20.565Z,3.75
2018-07-19T02:21:47.605Z,3.77
2018-07-19T02:24:14.712Z,3.47
2018-07-19T02:26:41.786Z,4.60
2018-07-19T02:29:09.429Z,3.33
2018-07-19T02:31:36.621Z,3.60
2018-07-19T02:34:04.181Z,3.15
2018-07-19T02:36:31.261Z,4.03
2018-07-19T02:38:58.464Z,3.60
2018-07-19T02:41:25.541Z,4.25
2018-07-19T02:43:52.631Z,4.47
2018-07-19T02:46:19.658Z,3.80
2018-07-19T02:48:46.673Z,3.93
2018-07-19T02:51:13.821Z,4.80
2018-07-19T02:53:40.965Z,3.80
2018-07-19T02:56:08.153Z,4.30
2018-07-19T02:58:35.605Z,4.80
2018-07-19T03:01:02.626Z,4.00
2018-07-19T03:03:29.669Z,3.80
2018-07-19T03:05:56.633Z,4.30
2018-07-19T03:08:23.649Z,4.10
2018-07-19T03:10:50.761Z,4.13
2018-07-19T03:13:17.736Z,3.77
2018-07-19T03:15:44.737Z,4.00
2018-07-19T03:18:11.728Z,3.73
2018-07-19T03:20:39.274Z,3.93
2018-07-19T03:23:06.349Z,3.37
2018-07-19T03:25:33.425Z,3.60
2018-07-19T03:28:00.409Z,4.20
2018-07-19T03:30:27.408Z,3.23
2018-07-19T03:32:54.507Z,4.40
2018-07-19T03:35:21.604Z,3.85
2018-07-19T03:37:48.613Z,5.33
2018-07-19T03:40:15.631Z,3.97
2018-07-19T03:42:42.709Z,3.40
2018-07-19T03:45:10.381Z,3.40
2018-07-19T03:47:37.479Z,3.80
2018-07-19T03:50:04.532Z,3.90
2018-07-19T03:52:31.616Z,3.40
2018-07-19T03:54:58.848Z,3.58
2018-07-19T03:57:25.898Z,3.45
2018-07-19T03:59:53.650Z,3.73
2018-07-19T04:02:20.669Z,3.92
2018-07-19T04:04:47.672Z,3.30
2018-07-19T04:07:14.696Z,3.97
2018-07-19T04:09:41.690Z,3.00
2018-07-19T04:12:08.830Z,3.50
2018-07-19T04:14:35.850Z,3.40
2018-07-19T04:17:02.947Z,3.87
2018-07-19T04:19:29.905Z,3.33
2018-07-19T04:21:56.975Z,3.00
2018-07-19T04:24:24.340Z,3.30
2018-07-19T04:26:51.385Z,3.37
2018-07-19T04:29:19.419Z,3.30
2018-07-19T04:31:46.454Z,3.10
2018-07-19T04:34:13.497Z,2.67
2018-07-19T04:36:40.650Z,3.00
2018-07-19T04:39:08.633Z,2.50
2018-07-19T04:41:35.663Z,2.37
2018-07-19T04:44:02.640Z,2.90
2018-07-19T04:46:29.748Z,2.93
2018-07-19T04:48:56.753Z,2.43
2018-07-19T04:51:23.749Z,3.00
2018-07-19T04:53:50.773Z,2.80
2018-07-19T04:56:17.807Z,3.17
2018-07-19T04:58:44.818Z,2.70
2018-07-19T05:01:11.828Z,3.17
2018-07-19T05:03:38.848Z,2.87
2018-07-19T05:06:05.934Z,3.03
2018-07-19T05:08:32.957Z,2.10
2018-07-19T05:10:59.976Z,2.87
2018-07-19T05:13:26.997Z,2.70
2018-07-19T05:15:54.168Z,4.10
2018-07-19T05:18:21.245Z,2.40
2018-07-19T05:20:48.313Z,3.40
2018-07-19T05:23:15.496Z,3.20
2018-07-19T05:25:43.663Z,3.43
2018-07-19T05:28:10.709Z,3.93
2018-07-19T05:30:37.701Z,3.80
2018-07-19T05:33:04.795Z,5.17
2018-07-19T05:35:31.841Z,4.37
2018-07-19T05:37:58.845Z,4.30
2018-07-19T05:40:25.980Z,4.30
2018-07-19T05:42:53.200Z,4.40
2018-07-19T05:45:20.261Z,5.23
2018-07-19T05:47:47.281Z,3.97
2018-07-19T05:50:14.274Z,4.37
2018-07-19T05:52:41.320Z,4.30
2018-07-19T05:55:08.436Z,4.37
2018-07-19T05:57:35.589Z,4.83
2018-07-19T06:00:02.669Z,4.37
2018-07-19T06:02:29.668Z,5.10
2018-07-19T06:04:56.727Z,4.40
2018-07-19T06:07:23.733Z,3.73
2018-07-19T06:09:50.730Z,4.23
2018-07-19T06:12:17.747Z,3.90
2018-07-19T06:14:44.733Z,3.70
2018-07-19T06:17:11.813Z,3.60
2018-07-19T06:19:38.848Z,3.73
2018-07-19T06:22:05.895Z,4.00
2018-07-19T06:24:32.955Z,4.10
2018-07-19T06:26:59.985Z,3.57
2018-07-19T06:29:26.949Z,2.70
2018-07-19T06:31:54.285Z,2.90
2018-07-19T06:34:21.308Z,3.53
2018-07-19T06:36:48.356Z,3.10
2018-07-19T06:39:15.485Z,3.50
2018-07-19T06:41:42.497Z,3.50
2018-07-19T06:44:09.524Z,3.00
2018-07-19T06:46:36.617Z,3.23
2018-07-19T06:49:03.674Z,3.13
2018-07-19T06:51:30.711Z,2.73
2018-07-19T06:53:57.709Z,2.80
2018-07-19T06:56:24.717Z,2.43
2018-07-19T06:58:51.762Z,2.70
2018-07-19T07:01:18.797Z,4.13
2018-07-19T07:03:45.789Z,3.37
2018-07-19T07:06:12.908Z,2.60
2018-07-19T07:08:39.925Z,3.33
2018-07-19T07:11:07.146Z,3.33
2018-07-19T07:13:34.189Z,2.80
2018-07-19T07:16:01.205Z,2.80
2018-07-19T07:18:28.240Z,3.10
2018-07-19T07:20:55.205Z,2.40
2018-07-19T07:23:22.269Z,2.93
2018-07-19T07:25:53.840Z,3.40
2018-07-19T07:28:22.196Z,3.50
2018-07-19T07:30:49.097Z,2.43
2018-07-19T07:33:16.811Z,2.50
2018-07-19T07:35:44.357Z,2.50
2018-07-19T07:38:11.493Z,3.10
2018-07-19T07:40:38.526Z,2.87
2018-07-19T07:43:07.121Z,2.80
2018-07-19T07:45:34.277Z,2.77
2018-07-19T07:48:01.465Z,2.70
2018-07-19T07:50:29.093Z,2.70
2018-07-19T07:52:56.181Z,2.70
2018-07-19T07:55:23.213Z,2.60
2018-07-19T07:57:50.345Z,3.10
2018-07-19T08:00:17.405Z,3.77
2018-07-19T08:02:44.549Z,2.73
2018-07-19T08:05:11.543Z,3.07
2018-07-19T08:07:38.560Z,2.93
2018-07-19T08:10:05.570Z,3.30
2018-07-19T08:12:32.593Z,3.30
2018-07-19T08:14:59.632Z,3.43
2018-07-19T08:17:26.677Z,4.63
2018-07-19T08:19:53.694Z,5.33
2018-07-19T08:22:20.717Z,5.27
2018-07-19T08:24:47.724Z,5.70
2018-07-19T08:27:14.745Z,7.00
2018-07-19T08:29:41.748Z,6.20
2018-07-19T08:32:08.833Z,7.10
2018-07-19T08:34:35.893Z,5.73
2018-07-19T08:37:02.941Z,5.20
2018-07-19T08:39:29.937Z,4.30
2018-07-19T08:41:57.009Z,4.27
2018-07-19T08:44:23.977Z,3.23
2018-07-19T08:46:51.005Z,5.07
2018-07-19T08:49:18.021Z,4.07
2018-07-19T08:51:45.026Z,4.07
2018-07-19T08:54:12.054Z,4.20
2018-07-19T08:56:39.165Z,4.07
2018-07-19T08:59:06.192Z,4.60
2018-07-19T09:01:33.219Z,3.90
2018-07-19T09:04:00.220Z,4.70
2018-07-19T09:06:27.273Z,3.80
2018-07-19T09:08:54.273Z,2.87
2018-07-19T09:11:21.246Z,3.60
2018-07-19T09:13:48.236Z,4.10
2018-07-19T09:16:15.337Z,2.90
2018-07-19T09:18:42.413Z,2.87
2018-07-19T09:21:09.397Z,3.60
2018-07-19T09:23:36.449Z,3.53
2018-07-19T09:26:03.520Z,3.80
2018-07-19T09:28:30.540Z,3.20
2018-07-19T09:30:57.529Z,2.97
2018-07-19T09:33:24.541Z,3.70
2018-07-19T09:35:51.856Z,2.40
2018-07-19T09:38:19.297Z,3.00
2018-07-19T09:40:46.329Z,2.77
2018-07-19T09:43:13.817Z,2.93
2018-07-19T09:45:40.941Z,2.23
2018-07-19T09:48:07.941Z,2.63
2018-07-19T09:50:34.967Z,3.10
2018-07-19T09:53:02.079Z,2.97
2018-07-19T09:55:29.117Z,3.33
2018-07-19T09:57:56.259Z,2.73
2018-07-19T10:00:28.980Z,2.90
2018-07-19T10:02:55.981Z,3.43
2018-07-19T10:05:23.045Z,2.90
2018-07-19T10:07:50.062Z,4.00
2018-07-19T10:10:17.106Z,3.73
2018-07-19T10:12:44.713Z,3.20
2018-07-19T10:15:11.689Z,2.90
2018-07-19T10:17:38.852Z,3.03
2018-07-19T10:20:05.869Z,3.67
2018-07-19T10:22:32.884Z,2.97
2018-07-19T10:24:59.869Z,3.57
2018-07-19T10:27:26.896Z,3.03
2018-07-19T10:29:53.945Z,3.07
2018-07-19T10:32:21.751Z,3.50
2018-07-19T10:34:48.591Z,3.90
2018-07-19T10:37:15.592Z,3.33
2018-07-19T10:39:43.062Z,2.57
2018-07-19T10:42:10.073Z,2.73
2018-07-19T10:44:37.125Z,4.50
2018-07-19T10:47:04.177Z,4.10
2018-07-19T10:49:31.224Z,3.87
2018-07-19T10:51:58.208Z,2.60
2018-07-19T10:54:25.189Z,2.77
2018-07-19T10:56:52.185Z,2.70
2018-07-19T10:59:19.172Z,2.90
2018-07-19T11:01:46.205Z,2.90
2018-07-19T11:04:13.333Z,3.23
2018-07-19T11:06:40.365Z,2.73
2018-07-19T11:09:07.882Z,2.90
2018-07-19T11:11:34.885Z,3.00
2018-07-19T11:14:01.906Z,4.17
2018-07-19T11:16:29.029Z,3.43
2018-07-19T11:18:56.034Z,3.33
2018-07-19T11:21:23.021Z,3.30
2018-07-19T11:23:50.076Z,2.87
2018-07-19T11:26:17.648Z,3.20
2018-07-19T11:28:44.643Z,3.70
2018-07-19T11:31:11.633Z,3.80
2018-07-19T11:33:38.596Z,4.50
2018-07-19T11:36:06.357Z,3.00
2018-07-19T11:38:33.381Z,2.77
2018-07-19T11:41:00.496Z,3.30
2018-07-19T11:43:27.457Z,2.70
2018-07-19T11:45:54.470Z,3.47
2018-07-19T11:48:22.164Z,2.90
2018-07-19T11:50:50.439Z,3.30
2018-07-19T11:53:17.412Z,2.70
2018-07-19T11:55:44.442Z,3.07
2018-07-19T11:58:11.515Z,2.47
2018-07-19T12:00:38.521Z,2.40
2018-07-19T12:03:05.505Z,2.50
2018-07-19T12:05:32.465Z,2.80
2018-07-19T12:07:59.576Z,3.07
2018-07-19T12:10:26.573Z,3.07
2018-07-19T12:12:53.597Z,2.93
2018-07-19T12:15:20.581Z,2.00
2018-07-19T12:17:47.613Z,2.70
2018-07-19T12:20:14.637Z,2.90
2018-07-19T12:22:41.849Z,3.10
2018-07-19T12:25:08.865Z,3.00
2018-07-19T12:27:35.881Z,2.37
2018-07-19T12:30:03.225Z,2.33
2018-07-19T12:32:30.297Z,2.73
2018-07-19T12:34:57.279Z,2.60
2018-07-19T12:37:24.269Z,2.70
2018-07-19T12:39:51.373Z,2.97
2018-07-19T12:42:18.345Z,2.97
2018-07-19T12:44:45.395Z,2.57
2018-07-19T12:47:13.085Z,2.70
2018-07-19T12:49:40.189Z,2.93
2018-07-19T12:52:07.181Z,2.80
2018-07-19T12:54:34.172Z,2.40
2018-07-19T12:57:01.443Z,2.77
2018-07-19T12:59:28.452Z,2.73
2018-07-19T13:01:55.432Z,2.83
2018-07-19T13:04:22.388Z,2.90
2018-07-19T13:06:49.742Z,3.30
2018-07-19T13:09:16.717Z,3.13
2018-07-19T13:11:43.673Z,3.13
2018-07-19T13:14:10.661Z,3.20
2018-07-19T13:16:37.619Z,3.20
2018-07-19T13:19:04.629Z,3.50
2018-07-19T13:21:31.704Z,2.80
2018-07-19T13:23:58.961Z,2.70
2018-07-19T13:26:26.117Z,2.90
2018-07-19T13:28:53.976Z,2.40
2018-07-19T13:31:21.029Z,2.83
2018-07-19T13:33:48.029Z,3.30
2018-07-19T13:36:15.137Z,3.57
2018-07-19T13:38:42.166Z,2.60
2018-07-19T13:41:09.157Z,2.97
2018-07-19T13:43:36.165Z,2.40
2018-07-19T13:46:03.181Z,2.63
2018-07-19T13:48:30.800Z,2.90
2018-07-19T13:50:57.753Z,3.23
2018-07-19T13:53:39.078Z,2.57
2018-07-19T13:56:06.973Z,3.00
2018-07-19T13:58:34.930Z,2.40
2018-07-19T14:01:02.077Z,2.50
2018-07-19T14:03:29.574Z,3.17
2018-07-19T14:05:56.589Z,3.20
2018-07-19T14:08:24.026Z,3.10
2018-07-19T14:10:51.058Z,2.70
2018-07-19T14:13:18.061Z,2.70
2018-07-19T14:15:45.165Z,2.30
2018-07-19T14:18:12.693Z,2.70
2018-07-19T14:20:39.678Z,3.13
2018-07-19T14:23:06.818Z,2.40
2018-07-19T14:25:33.800Z,2.30
2018-07-19T14:28:01.198Z,3.20
2018-07-19T14:30:28.197Z,2.50
2018-07-19T14:32:55.193Z,2.77
2018-07-19T14:35:22.173Z,2.20
2018-07-19T14:37:49.522Z,3.23
2018-07-19T14:40:16.526Z,3.33
2018-07-19T14:42:43.504Z,2.80
2018-07-19T14:45:10.516Z,2.70
2018-07-19T14:47:37.597Z,2.80
2018-07-19T14:50:04.717Z,3.13
2018-07-19T14:52:31.713Z,3.93
2018-07-19T14:54:58.917Z,3.63
2018-07-19T14:57:25.929Z,3.07
2018-07-19T14:59:52.973Z,2.83
2018-07-19T15:02:19.997Z,2.90
2018-07-19T15:04:47.039Z,2.73
2018-07-19T15:07:14.116Z,2.40
2018-07-19T15:09:41.077Z,3.10
2018-07-19T15:12:08.144Z,3.10
2018-07-19T15:14:35.129Z,2.30
2018-07-19T15:17:02.117Z,2.43
2018-07-19T15:19:29.097Z,3.00
2018-07-19T15:21:56.078Z,2.77
2018-07-19T15:24:23.058Z,2.90
2018-07-19T15:26:50.061Z,2.90
2018-07-19T15:29:17.101Z,2.90
2018-07-19T15:31:44.080Z,3.53
2018-07-19T15:34:11.106Z,3.03
2018-07-19T15:36:38.085Z,2.90
2018-07-19T15:39:06.416Z,2.97
2018-07-19T15:41:33.553Z,3.07
2018-07-19T15:44:00.584Z,3.30
2018-07-19T15:46:27.560Z,3.60
2018-07-19T15:48:54.931Z,3.40
2018-07-19T15:51:21.962Z,3.23
2018-07-19T15:53:49.014Z,2.60
2018-07-19T15:56:15.996Z,3.03
2018-07-19T15:58:43.017Z,2.90
2018-07-19T16:01:10.037Z,2.67
2018-07-19T16:03:38.162Z,2.53
2018-07-19T16:06:05.233Z,2.60
2018-07-19T16:08:32.460Z,2.80
2018-07-19T16:10:59.520Z,2.53
2018-07-19T16:13:26.487Z,3.10
2018-07-19T16:15:54.466Z,2.53
2018-07-19T16:18:21.455Z,2.77
2018-07-19T16:20:48.478Z,2.33
2018-07-19T16:23:15.433Z,2.67
2018-07-19T16:25:42.468Z,2.50
2018-07-19T16:28:09.456Z,2.80
2018-07-19T16:30:36.570Z,2.40
2018-07-19T16:33:03.696Z,2.73
2018-07-19T16:35:30.711Z,2.70
2018-07-19T16:37:57.745Z,2.80
2018-07-19T16:40:24.746Z,2.90
2018-07-19T16:42:51.812Z,3.03
2018-07-19T16:45:18.760Z,3.23
2018-07-19T16:47:45.781Z,3.07
2018-07-19T16:50:12.788Z,2.40
2018-07-19T16:52:39.817Z,2.73
2018-07-19T16:55:06.973Z,2.40
2018-07-19T16:57:34.010Z,3.53
2018-07-19T17:00:00.992Z,3.23
2018-07-19T17:02:28.022Z,2.23
2018-07-19T17:04:55.012Z,2.13
2018-07-19T17:07:22.003Z,2.47
2018-07-19T17:09:49.016Z,2.20
2018-07-19T17:12:16.125Z,2.50
2018-07-19T17:14:43.092Z,2.60
2018-07-19T17:17:10.110Z,1.93
2018-07-19T17:19:39.176Z,2.20
2018-07-19T17:22:06.177Z,2.33
2018-07-19T17:24:33.144Z,2.97
2018-07-19T17:27:00.181Z,2.27
2018-07-19T17:29:27.317Z,2.50
2018-07-19T17:31:54.321Z,2.53
2018-07-19T17:34:21.481Z,2.43
2018-07-19T17:36:48.446Z,2.63
2018-07-19T17:39:15.468Z,2.40
2018-07-19T17:41:42.524Z,2.23
2018-07-19T17:44:09.624Z,2.37
2018-07-19T17:46:36.849Z,2.50
2018-07-19T17:49:04.434Z,2.60
2018-07-19T17:51:31.556Z,2.17
2018-07-19T17:53:58.549Z,2.10
2018-07-19T17:56:25.512Z,1.93
2018-07-19T17:58:52.476Z,2.57
2018-07-19T18:01:19.664Z,2.70
2018-07-19T18:03:46.903Z,3.07
2018-07-19T18:06:13.997Z,2.47
2018-07-19T18:08:41.080Z,2.17
2018-07-19T18:11:08.177Z,1.90
2018-07-19T18:13:35.985Z,2.23
2018-07-19T18:16:03.117Z,2.00
2018-07-19T18:18:30.713Z,2.37
2018-07-19T18:20:57.784Z,2.00
2018-07-19T18:23:24.813Z,2.00
2018-07-19T18:25:51.821Z,2.37
2018-07-19T18:28:18.841Z,2.20
2018-07-19T18:30:45.910Z,2.10
2018-07-19T18:33:13.181Z,1.93
2018-07-19T18:35:40.297Z,2.33
2018-07-19T18:38:07.305Z,2.23
2018-07-19T18:40:34.629Z,3.00
2018-07-19T18:43:01.633Z,3.00
2018-07-19T18:45:28.601Z,2.60
2018-07-19T18:47:55.597Z,2.50
2018-07-19T18:50:22.964Z,2.70
2018-07-19T18:52:49.938Z,2.27
2018-07-19T18:55:16.969Z,2.20
2018-07-19T18:57:43.948Z,2.30
2018-07-19T19:00:10.993Z,2.00
2018-07-19T19:02:38.091Z,1.80
2018-07-19T19:05:05.138Z,1.90
2018-07-19T19:07:32.258Z,2.10
2018-07-19T19:10:00.022Z,2.30
2018-07-19T19:12:26.976Z,2.07
2018-07-19T19:14:53.973Z,2.87
2018-07-19T19:17:20.957Z,2.80
2018-07-19T19:19:47.999Z,2.90
2018-07-19T19:22:14.993Z,2.80
2018-07-19T19:24:42.383Z,2.40
2018-07-19T19:27:09.408Z,2.13
2018-07-19T19:29:36.432Z,2.03
2018-07-19T19:32:03.542Z,2.80
2018-07-19T19:34:30.605Z,2.10
2018-07-19T19:36:57.729Z,2.63
2018-07-19T19:39:24.865Z,1.90
2018-07-19T19:41:52.849Z,2.23
2018-07-19T19:44:20.287Z,2.83
2018-07-19T19:46:47.301Z,2.43
2018-07-19T19:49:14.277Z,2.70
2018-07-19T19:51:41.302Z,1.93
2018-07-19T19:54:08.264Z,2.30
2018-07-19T19:56:35.286Z,2.23
2018-07-19T19:59:02.302Z,2.10
2018-07-19T20:01:29.332Z,3.17
2018-07-19T20:03:56.365Z,2.50
2018-07-19T20:06:23.589Z,2.97
2018-07-19T20:08:50.576Z,3.13
2018-07-19T20:11:17.585Z,3.63
2018-07-19T20:13:44.573Z,2.80
2018-07-19T20:16:11.589Z,3.03
2018-07-19T20:18:38.590Z,3.57
2018-07-19T20:21:05.762Z,3.00
2018-07-19T20:23:32.789Z,3.10
2018-07-19T20:25:59.778Z,3.17
2018-07-19T20:28:26.816Z,3.70
2018-07-19T20:30:53.853Z,3.93
2018-07-19T20:33:20.909Z,3.93
2018-07-19T20:35:48.005Z,4.40
2018-07-19T20:38:15.141Z,5.47
2018-07-19T20:40:42.951Z,5.90
2018-07-19T20:43:09.933Z,4.63
2018-07-19T20:45:36.984Z,4.10
2018-07-19T20:50:45.905Z,3.33
2018-07-19T20:53:12.926Z,2.83
2018-07-19T20:55:39.949Z,3.00
2018-07-19T20:58:06.941Z,2.70
2018-07-19T21:00:33.957Z,2.70
2018-07-19T21:03:00.997Z,2.47
2018-07-19T21:05:28.272Z,2.60
2018-07-19T21:07:55.253Z,2.50
2018-07-19T21:10:22.253Z,2.20
2018-07-19T21:12:49.285Z,2.40
2018-07-19T21:15:16.241Z,3.30
2018-07-19T21:17:43.257Z,2.80
2018-07-19T21:20:10.266Z,2.63
2018-07-19T21:22:37.313Z,2.70
2018-07-19T21:25:04.845Z,2.70
2018-07-19T21:27:32.601Z,2.63
2018-07-19T21:29:59.800Z,2.33
2018-07-19T21:32:26.788Z,3.10
2018-07-19T21:34:53.832Z,2.40
2018-07-19T21:37:20.817Z,2.80
2018-07-19T21:39:47.849Z,2.33
2018-07-19T21:42:14.997Z,2.90
2018-07-19T21:44:41.961Z,2.50
2018-07-19T21:47:08.948Z,2.80
2018-07-19T21:49:35.967Z,2.60
2018-07-19T21:52:02.978Z,3.27
2018-07-19T21:54:29.957Z,3.33
2018-07-19T21:56:56.956Z,3.47
2018-07-19T21:59:23.937Z,3.90
2018-07-19T22:01:50.908Z,2.80
2018-07-19T22:04:17.876Z,3.07
2018-07-19T22:06:45.154Z,2.97
2018-07-19T22:09:12.745Z,3.40
2018-07-19T22:11:39.753Z,2.87
2018-07-19T22:14:07.042Z,3.27
2018-07-19T22:16:34.268Z,2.70
2018-07-19T22:19:01.458Z,3.10
2018-07-19T22:21:28.476Z,2.90
2018-07-19T22:23:55.769Z,2.97
2018-07-19T22:26:22.881Z,3.30
2018-07-19T22:28:49.904Z,3.10
2018-07-19T22:31:17.325Z,2.80
2018-07-19T22:33:44.693Z,3.20
2018-07-19T22:36:11.677Z,2.83
2018-07-19T22:38:39.225Z,2.87
2018-07-19T22:41:06.697Z,3.17
2018-07-19T22:43:33.749Z,2.90
2018-07-19T22:46:00.772Z,2.87
2018-07-19T22:48:27.746Z,2.90
2018-07-19T22:50:54.837Z,3.07
2018-07-19T22:53:21.869Z,2.60
2018-07-19T22:55:50.608Z,2.60
2018-07-19T22:58:17.676Z,2.50
2018-07-19T23:00:44.685Z,2.60
2018-07-19T23:03:11.653Z,2.90
2018-07-19T23:05:38.657Z,3.33
2018-07-19T23:08:05.676Z,2.50
2018-07-19T23:10:32.689Z,2.10
2018-07-19T23:12:59.801Z,3.10
2018-07-19T23:15:27.798Z,2.80
2018-07-19T23:17:54.785Z,2.80
2018-07-19T23:20:21.753Z,2.10
2018-07-19T23:22:53.797Z,2.30
2018-07-19T23:25:20.804Z,2.47
2018-07-19T23:27:47.792Z,2.13
2018-07-19T23:30:15.065Z,2.70
2018-07-19T23:32:42.057Z,2.70
2018-07-19T23:35:09.105Z,2.77
2018-07-19T23:37:37.664Z,2.80
2018-07-19T23:40:25.346Z,2.60
2018-07-19T23:42:56.514Z,2.20
2018-07-19T23:45:29.940Z,3.00
2018-07-19T23:47:57.005Z,2.80
2018-07-19T23:50:23.995Z,2.57
2018-07-19T23:52:51.232Z,2.40
2018-07-19T23:55:18.270Z,2.37
2018-07-19T23:57:45.281Z,2.73
